createdAt,value
2023-01-23T01:16:17.720Z,102123.70
2023-01-23T01:18:50.922Z,102124.59
2023-01-23T01:21:24.383Z,102123.29
2023-01-23T01:23:56.735Z,102126.48
2023-01-23T01:26:31.508Z,102123.77
2023-01-23T01:29:04.073Z,102126.38
2023-01-23T01:31:36.882Z,102119.28
2023-01-23T01:34:09.332Z,102119.73
2023-01-23T01:36:41.934Z,102119.28
2023-01-23T01:39:14.322Z,102122.81
2023-01-23T01:41:47.381Z,102121.92
2023-01-23T01:44:23.654Z,102118.39
2023-01-23T01:46:56.185Z,102113.93
2023-01-23T01:49:32.585Z,102117.59
2023-01-23T01:52:09.425Z,102115.84
2023-01-23T01:54:50.682Z,102110.08
2023-01-23T01:57:36.980Z,102112.78
2023-01-23T02:00:19.858Z,102109.09
2023-01-23T02:02:59.578Z,102111.03
2023-01-23T02:05:39.936Z,102113.28
2023-01-23T02:08:37.924Z,102120.45
2023-01-23T02:11:10.712Z,102107.17
2023-01-23T02:13:43.691Z,102107.62
2023-01-23T02:16:24.552Z,102105.41
2023-01-23T02:19:03.889Z,102107.64
2023-01-23T02:21:36.391Z,102107.20
2023-01-23T02:24:35.019Z,102108.06
2023-01-23T02:27:08.544Z,102101.37
2023-01-23T02:29:48.127Z,102106.28
2023-01-23T02:32:22.467Z,102110.73
2023-01-23T02:34:58.269Z,102110.73
2023-01-23T02:37:33.640Z,102105.89
2023-01-23T02:40:08.045Z,102108.56
2023-01-23T02:42:43.332Z,102115.19
2023-01-23T02:45:17.902Z,102116.91
2023-01-23T02:47:50.601Z,102115.52
2023-01-23T02:50:23.039Z,102113.20
2023-01-23T02:52:57.400Z,102113.58
2023-01-23T02:55:34.141Z,102110.08
2023-01-23T02:58:24.395Z,102107.81
2023-01-23T03:00:56.764Z,102108.32
2023-01-23T03:03:30.927Z,102110.14
2023-01-23T03:06:06.134Z,102112.81
2023-01-23T03:08:40.710Z,102105.64
2023-01-23T03:11:14.246Z,102102.08
2023-01-23T03:13:48.615Z,102109.56
2023-01-23T03:16:21.236Z,102119.44
2023-01-23T03:18:55.017Z,102113.20
2023-01-23T03:21:27.812Z,102114.15
2023-01-23T03:24:01.741Z,102117.68
2023-01-23T03:26:34.418Z,102117.23
2023-01-23T03:29:24.606Z,102120.03
2023-01-23T03:31:57.102Z,102114.30
2023-01-23T03:34:30.769Z,102120.09
2023-01-23T03:37:03.678Z,102127.25
2023-01-23T03:39:56.193Z,102125.55
2023-01-23T03:42:29.450Z,102126.98
2023-01-23T03:45:02.327Z,102129.78
2023-01-23T03:47:36.320Z,102129.83
2023-01-23T03:50:11.701Z,102136.48
2023-01-23T03:52:44.355Z,102144.53
2023-01-23T03:55:17.292Z,102146.34
2023-01-23T03:57:50.264Z,102146.84
2023-01-23T04:00:25.498Z,102142.34
2023-01-23T04:03:02.711Z,102148.55
2023-01-23T04:05:35.516Z,102154.77
2023-01-23T04:08:08.715Z,102154.30
2023-01-23T04:10:42.029Z,102148.41
2023-01-23T04:13:17.272Z,102150.95
2023-01-23T04:15:50.002Z,102155.47
2023-01-23T04:18:22.544Z,102148.77
2023-01-23T04:20:55.795Z,102149.56
2023-01-23T04:23:28.389Z,102146.41
2023-01-23T04:26:01.242Z,102149.53
2023-01-23T04:28:33.966Z,102158.48
2023-01-23T04:31:07.011Z,102152.32
2023-01-23T04:33:40.357Z,102158.56
2023-01-23T04:36:13.808Z,102155.42
2023-01-23T04:38:46.110Z,102159.40
2023-01-23T04:41:24.572Z,102165.60
2023-01-23T04:44:00.248Z,102164.36
2023-01-23T04:46:33.287Z,102176.89
2023-01-23T04:49:07.382Z,102183.44
2023-01-23T04:51:41.683Z,102174.91
2023-01-23T04:54:14.416Z,102173.51
2023-01-23T04:56:47.331Z,102178.80
2023-01-23T04:59:21.751Z,102173.92
2023-01-23T05:01:55.664Z,102176.24
2023-01-23T05:04:29.367Z,102177.11
2023-01-23T05:07:01.672Z,102177.13
2023-01-23T05:09:35.295Z,102175.71
2023-01-23T05:12:08.486Z,102176.13
2023-01-23T05:14:42.421Z,102187.21
2023-01-23T05:17:14.877Z,102185.43
2023-01-23T05:19:48.981Z,102190.25
2023-01-23T05:22:24.014Z,102186.59
2023-01-23T05:24:57.541Z,102193.22
2023-01-23T05:27:31.764Z,102196.66
2023-01-23T05:30:04.485Z,102196.10
2023-01-23T05:32:38.753Z,102196.96
2023-01-23T05:35:12.408Z,102197.47
2023-01-23T05:37:51.765Z,102195.21
2023-01-23T05:40:26.336Z,102199.19
2023-01-23T05:43:12.495Z,102205.88
2023-01-23T05:46:04.941Z,102205.49
2023-01-23T05:48:44.956Z,102214.41
2023-01-23T05:51:17.977Z,102208.70
2023-01-23T05:53:50.896Z,102214.50
2023-01-23T05:56:23.354Z,102212.27
2023-01-23T05:59:00.947Z,102219.46
2023-01-23T06:01:35.754Z,102219.11
2023-01-23T06:04:08.200Z,102221.33
2023-01-23T06:06:42.270Z,102223.53
2023-01-23T06:09:14.741Z,102223.00
2023-01-23T06:11:47.916Z,102222.53
2023-01-23T06:14:20.596Z,102220.33
2023-01-23T06:16:53.288Z,102226.09
2023-01-23T06:19:26.281Z,102227.91
2023-01-23T06:21:58.939Z,102227.91
2023-01-23T06:24:33.150Z,102223.42
2023-01-23T06:29:49.815Z,102232.19
2023-01-23T06:32:23.684Z,102232.19
2023-01-23T06:34:56.353Z,102233.02
2023-01-23T06:37:29.348Z,102236.53
2023-01-23T06:40:03.098Z,102235.22
2023-01-23T06:42:36.215Z,102230.80
2023-01-23T06:45:10.657Z,102235.81
2023-01-23T06:47:43.202Z,102239.89
2023-01-23T06:50:16.339Z,102240.27
2023-01-23T06:52:49.127Z,102235.78
2023-01-23T06:55:24.284Z,102246.42
2023-01-23T06:57:57.054Z,102240.19
2023-01-23T07:00:29.924Z,102246.81
2023-01-23T07:03:04.428Z,102248.95
2023-01-23T07:05:43.108Z,102260.05
2023-01-23T07:08:16.219Z,102260.05
2023-01-23T07:10:51.069Z,102257.40
2023-01-23T07:13:23.572Z,102265.01
2023-01-23T07:15:57.093Z,102265.81
2023-01-23T07:18:30.532Z,102260.49
2023-01-23T07:21:06.509Z,102266.34
2023-01-23T07:23:39.041Z,102268.13
2023-01-23T07:26:12.283Z,102265.84
2023-01-23T07:28:44.755Z,102267.13
2023-01-23T07:31:17.378Z,102268.38
2023-01-23T07:33:50.671Z,102270.06
2023-01-23T07:36:23.109Z,102268.22
2023-01-23T07:38:56.451Z,102273.58
2023-01-23T07:41:28.861Z,102272.23
2023-01-23T07:44:01.561Z,102274.91
2023-01-23T07:46:34.165Z,102276.10
2023-01-23T07:49:07.758Z,102278.27
2023-01-23T07:51:40.530Z,102281.81
2023-01-23T07:54:13.282Z,102286.78
2023-01-23T07:56:46.480Z,102283.69
2023-01-23T07:59:19.442Z,102284.08
2023-01-23T08:01:52.811Z,102283.63
2023-01-23T08:04:25.722Z,102284.16
2023-01-23T08:06:58.091Z,102294.45
2023-01-23T08:09:30.477Z,102302.90
2023-01-23T08:12:03.281Z,102308.25
2023-01-23T10:28:23.030Z,102292.07
2023-01-23T10:31:00.335Z,102290.32
2023-01-23T10:33:40.563Z,102286.81
2023-01-23T10:36:27.383Z,102293.56
2023-01-23T10:39:20.294Z,102290.02
2023-01-23T10:42:01.505Z,102288.75
2023-01-23T10:44:27.222Z,102278.60
2023-01-23T10:47:03.786Z,102281.79
2023-01-23T10:49:39.136Z,102280.50
2023-01-23T10:52:33.548Z,102275.62
2023-01-23T10:55:10.142Z,102278.27
2023-01-23T10:57:49.408Z,102277.86
2023-01-23T11:00:47.161Z,102269.41
2023-01-23T11:03:29.342Z,102260.08
2023-01-23T11:06:15.427Z,102256.56
2023-01-23T11:08:55.095Z,102262.39
2023-01-23T11:11:30.761Z,102262.48
2023-01-23T11:14:16.959Z,102262.45
2023-01-23T11:16:51.156Z,102262.03
2023-01-23T11:19:23.840Z,102263.76
2023-01-23T11:22:02.451Z,102257.04
2023-01-23T11:24:40.724Z,102262.84
2023-01-23T11:27:26.761Z,102261.50
2023-01-23T11:30:28.350Z,102259.66
2023-01-23T11:33:04.893Z,102254.39
2023-01-23T11:36:06.556Z,102256.21
2023-01-23T11:38:52.740Z,102259.80
2023-01-23T11:41:32.741Z,102256.33
2023-01-23T11:44:09.999Z,102258.55
2023-01-23T11:46:59.106Z,102251.09
2023-01-23T11:50:11.702Z,102254.20
2023-01-23T11:53:18.072Z,102250.11
2023-01-23T11:56:04.046Z,102249.10
2023-01-23T11:59:18.895Z,102252.61
2023-01-23T12:02:26.682Z,102251.27
2023-01-23T12:05:43.381Z,102256.59
2023-01-23T12:12:08.131Z,102250.83
2023-01-23T12:14:48.750Z,102256.63
2023-01-23T12:17:33.005Z,102254.88
2023-01-23T12:20:26.766Z,102257.04
2023-01-23T12:23:22.286Z,102251.22
2023-01-23T12:26:14.125Z,102254.37
2023-01-23T12:29:18.984Z,102259.22
2023-01-23T12:32:18.043Z,102257.31
2023-01-23T12:35:15.137Z,102265.81
2023-01-23T12:38:03.951Z,102264.89
2023-01-23T12:40:59.481Z,102263.97
2023-01-23T12:43:58.280Z,102263.29
2023-01-23T12:46:53.031Z,102264.27
2023-01-23T12:49:40.885Z,102268.22
2023-01-23T12:52:35.594Z,102268.55
2023-01-23T12:55:27.839Z,102263.94
2023-01-23T12:58:08.966Z,102257.28
2023-01-23T13:00:49.265Z,102267.16
2023-01-23T13:03:44.900Z,102262.63
2023-01-23T13:06:26.788Z,102264.42
2023-01-23T13:09:31.261Z,102276.02
2023-01-23T13:12:22.494Z,102272.51
2023-01-23T13:15:12.734Z,102274.20
2023-01-23T13:17:53.005Z,102275.06
2023-01-23T13:20:53.509Z,102277.65
2023-01-23T13:23:32.713Z,102272.80
2023-01-23T13:26:28.342Z,102271.11
2023-01-23T13:29:04.218Z,102280.03
2023-01-23T13:31:49.237Z,102270.25
2023-01-23T13:34:27.208Z,102270.75
2023-01-23T13:37:03.357Z,102278.33
2023-01-23T13:39:37.536Z,102277.92
2023-01-23T13:42:39.339Z,102274.79
2023-01-23T13:45:28.297Z,102281.09
2023-01-23T13:48:31.893Z,102282.97
2023-01-23T13:51:19.975Z,102283.83
2023-01-23T13:54:11.317Z,102278.56
2023-01-23T13:56:45.621Z,102283.08
2023-01-23T13:59:32.003Z,102285.73
2023-01-23T14:02:51.515Z,102281.73
2023-01-23T14:05:30.444Z,102281.23
2023-01-23T14:08:07.675Z,102288.84
2023-01-23T14:10:43.972Z,102285.30
2023-01-23T14:13:20.573Z,102283.49
2023-01-23T14:16:12.094Z,102285.25
2023-01-23T14:18:56.474Z,102280.84
2023-01-23T14:21:41.071Z,102281.30
2023-01-23T14:24:22.330Z,102277.22
2023-01-23T14:27:07.775Z,102285.19
2023-01-23T14:29:38.910Z,102284.36
2023-01-23T14:32:27.345Z,102282.97
2023-01-23T14:35:00.737Z,102278.09
2023-01-23T14:37:33.722Z,102277.64
2023-01-23T14:43:13.790Z,102277.67
2023-01-23T14:45:49.767Z,102284.45
2023-01-23T14:48:22.407Z,102283.61
2023-01-23T14:51:27.801Z,102279.67
2023-01-23T14:54:10.466Z,102281.52
2023-01-23T14:56:41.753Z,102275.69
2023-01-23T14:59:35.157Z,102272.05
2023-01-23T15:02:34.438Z,102278.26
2023-01-23T15:05:34.881Z,102284.50
2023-01-23T15:08:21.422Z,102277.28
2023-01-23T15:10:53.903Z,102278.20
2023-01-23T15:13:37.082Z,102283.08
2023-01-23T15:16:19.860Z,102282.58
2023-01-23T15:19:20.086Z,102285.30
2023-01-23T15:21:52.409Z,102288.90
2023-01-23T15:24:49.679Z,102289.31
2023-01-23T15:27:36.600Z,102287.59
2023-01-23T15:30:42.823Z,102291.21
2023-01-23T15:33:31.135Z,102297.91
2023-01-23T15:36:09.300Z,102299.66
2023-01-23T15:38:41.636Z,102311.22
2023-01-23T15:41:17.299Z,102305.00
2023-01-23T15:43:48.234Z,102305.06
2023-01-23T15:46:21.379Z,102298.88
2023-01-23T15:48:54.863Z,102306.03
2023-01-23T15:51:27.274Z,102306.88
2023-01-23T15:54:00.694Z,102305.95
2023-01-23T15:56:35.204Z,102304.64
2023-01-23T15:59:16.659Z,102313.53
2023-01-23T16:01:49.367Z,102313.08
2023-01-23T16:04:22.184Z,102312.67
2023-01-23T16:06:54.581Z,102320.69
2023-01-23T16:09:32.629Z,102313.08
2023-01-23T16:12:05.590Z,102314.42
2023-01-23T16:14:38.366Z,102315.34
2023-01-23T16:17:16.688Z,102309.99
2023-01-23T16:19:45.099Z,102315.34
2023-01-23T19:21:15.974Z,102315.29
2023-01-23T19:23:55.082Z,102313.98
2023-01-23T19:26:53.983Z,102318.02
2023-01-23T19:29:26.583Z,102320.74
2023-01-23T19:32:05.473Z,102318.98
2023-01-23T19:34:35.329Z,102319.85
2023-01-23T19:37:08.474Z,102320.35
2023-01-23T19:39:42.011Z,102314.11
2023-01-23T19:42:16.598Z,102315.08
2023-01-23T19:44:49.530Z,102316.00
2023-01-23T19:47:23.076Z,102315.53
2023-01-23T19:49:57.149Z,102306.67
2023-01-23T19:52:31.730Z,102306.67
2023-01-23T19:55:04.477Z,102303.97
2023-01-23T19:57:37.478Z,102305.30
2023-01-23T20:00:16.537Z,102315.05
2023-01-23T20:02:49.362Z,102307.45
2023-01-23T20:05:22.539Z,102305.56
2023-01-23T20:07:55.746Z,102306.92
2023-01-23T20:10:28.240Z,102309.70
2023-01-23T20:13:01.119Z,102315.08
2023-01-23T20:15:33.978Z,102308.37
2023-01-23T20:18:07.470Z,102319.98
2023-01-23T20:20:40.089Z,102322.13
2023-01-23T20:23:12.868Z,102316.34
2023-01-23T20:25:45.733Z,102314.03
2023-01-23T20:28:18.871Z,102316.21
2023-01-23T20:30:53.017Z,102317.07
2023-01-23T20:33:26.356Z,102314.42
2023-01-23T20:35:58.929Z,102321.11
2023-01-23T20:38:31.386Z,102320.66
2023-01-23T20:41:10.045Z,102326.04
2023-01-23T20:43:46.033Z,102318.02
2023-01-23T20:46:19.605Z,102326.91
2023-01-23T20:48:52.343Z,102328.22
2023-01-23T20:51:24.929Z,102323.27
2023-01-23T20:53:58.294Z,102319.72
2023-01-23T20:56:31.106Z,102324.18
2023-01-23T20:59:21.711Z,102322.39
2023-01-23T21:02:13.446Z,102324.16
2023-01-23T21:04:46.107Z,102320.05
2023-01-23T21:07:20.688Z,102320.53
2023-01-23T21:09:53.511Z,102314.73
2023-01-23T21:12:26.021Z,102316.55
2023-01-23T21:14:58.521Z,102320.22
2023-01-23T21:17:31.076Z,102316.66
2023-01-23T21:20:04.156Z,102312.69
2023-01-23T21:22:36.915Z,102311.33
2023-01-23T21:25:10.408Z,102311.75
2023-01-23T21:27:43.628Z,102311.30
2023-01-23T21:30:16.591Z,102313.48
2023-01-23T21:32:50.379Z,102318.33
2023-01-23T21:35:23.605Z,102318.33
2023-01-23T21:37:56.562Z,102313.39
2023-01-23T21:40:29.173Z,102315.66
2023-01-23T21:43:01.762Z,102310.78
2023-01-23T21:45:34.423Z,102316.07
2023-01-23T21:48:07.424Z,102311.61
2023-01-23T21:50:42.825Z,102318.25
2023-01-23T21:53:15.410Z,102311.53
2023-01-23T21:55:54.444Z,102299.08
2023-01-23T21:58:27.262Z,102301.27
2023-01-23T22:01:23.198Z,102305.73
2023-01-23T22:03:57.453Z,102299.48
2023-01-23T22:06:30.295Z,102304.40
2023-01-23T22:09:03.133Z,102307.47
2023-01-23T22:11:36.450Z,102305.23
2023-01-23T22:14:09.217Z,102305.23
2023-01-23T22:16:50.245Z,102305.77
2023-01-23T22:19:25.047Z,102310.22
2023-01-23T22:21:57.375Z,102308.49
2023-01-23T22:24:30.561Z,102308.97
2023-01-23T22:27:04.254Z,102306.38
2023-01-23T22:29:36.682Z,102308.19
2023-01-23T22:32:09.304Z,102306.39
2023-01-23T22:34:41.995Z,102300.23
2023-01-23T22:37:14.579Z,102306.95
2023-01-23T22:39:47.762Z,102301.58
2023-01-23T22:42:21.127Z,102309.58
2023-01-23T22:44:53.485Z,102304.17
2023-01-23T22:47:26.001Z,102301.50
2023-01-23T22:49:58.605Z,102307.73
2023-01-23T22:52:31.055Z,102308.23
2023-01-23T22:55:03.949Z,102305.53
2023-01-23T22:57:36.830Z,102298.88
2023-01-23T23:00:15.434Z,102300.63
2023-01-23T23:02:47.792Z,102303.28
2023-01-23T23:05:20.760Z,102303.70
2023-01-23T23:07:53.982Z,102306.29
2023-01-23T23:10:27.479Z,102308.05
2023-01-23T23:13:00.061Z,102311.25
2023-01-23T23:15:33.405Z,102306.34
2023-01-23T23:18:06.248Z,102298.31
2023-01-23T23:20:39.952Z,102306.38
2023-01-23T23:23:12.748Z,102307.68
2023-01-23T23:25:45.091Z,102305.03
2023-01-23T23:28:17.683Z,102305.51
2023-01-23T23:30:50.179Z,102310.41
2023-01-23T23:33:22.830Z,102310.86
2023-01-23T23:35:56.374Z,102317.55
2023-01-23T23:38:28.689Z,102312.59
2023-01-23T23:43:51.491Z,102305.84
2023-01-23T23:46:24.036Z,102311.69
2023-01-23T23:48:56.637Z,102316.19
2023-01-23T23:51:30.037Z,102314.87
2023-01-23T23:54:02.899Z,102308.63
2023-01-23T23:56:35.483Z,102302.84
2023-01-23T23:59:17.236Z,102308.68
